sensor_id;sensor_type;location;lat;lon;timestamp;pressure;altitude;pressure_sealevel;temperature;humidity
70011;BME280;59543;37.950;-122.338;2023-04-01T00:01:01;102207.47;;;16.74;37.11
70011;BME280;59543;37.950;-122.338;2023-04-01T00:03:28;102202.88;;;16.57;38.04
70011;BME280;59543;37.950;-122.338;2023-04-01T00:05:56;102203.00;;;16.37;39.49
70011;BME280;59543;37.950;-122.338;2023-04-01T00:08:24;102207.13;;;16.41;40.47
70011;BME280;59543;37.950;-122.338;2023-04-01T00:10:51;102198.91;;;16.51;40.53
70011;BME280;59543;37.950;-122.338;2023-04-01T00:13:17;102186.66;;;16.47;39.37
70011;BME280;59543;37.950;-122.338;2023-04-01T00:15:44;102196.13;;;16.43;40.57
70011;BME280;59543;37.950;-122.338;2023-04-01T00:18:10;102191.28;;;16.37;39.51
70011;BME280;59543;37.950;-122.338;2023-04-01T00:20:37;102191.38;;;16.17;38.90
70011;BME280;59543;37.950;-122.338;2023-04-01T00:23:03;102197.00;;;16.06;39.55
70011;BME280;59543;37.950;-122.338;2023-04-01T00:25:30;102188.47;;;16.01;39.05
70011;BME280;59543;37.950;-122.338;2023-04-01T00:27:57;102193.59;;;16.04;39.83
70011;BME280;59543;37.950;-122.338;2023-04-01T00:30:23;102199.53;;;16.17;39.55
70011;BME280;59543;37.950;-122.338;2023-04-01T00:32:53;102197.03;;;15.96;40.05
70011;BME280;59543;37.950;-122.338;2023-04-01T00:35:19;102199.63;;;15.98;39.95
70011;BME280;59543;37.950;-122.338;2023-04-01T00:37:46;102204.69;;;15.64;39.68
70011;BME280;59543;37.950;-122.338;2023-04-01T00:40:31;102203.69;;;15.55;40.99
70011;BME280;59543;37.950;-122.338;2023-04-01T00:42:58;102193.16;;;15.42;41.29
70011;BME280;59543;37.950;-122.338;2023-04-01T00:45:32;102205.03;;;15.22;42.02
70011;BME280;59543;37.950;-122.338;2023-04-01T00:48:03;102195.91;;;15.13;43.62
70011;BME280;59543;37.950;-122.338;2023-04-01T00:50:32;102193.91;;;15.05;44.33
70011;BME280;59543;37.950;-122.338;2023-04-01T00:53:00;102194.06;;;15.14;44.51
70011;BME280;59543;37.950;-122.338;2023-04-01T00:55:28;102193.63;;;14.99;43.46
70011;BME280;59543;37.950;-122.338;2023-04-01T00:57:57;102201.03;;;14.97;43.67
70011;BME280;59543;37.950;-122.338;2023-04-01T01:00:24;102202.47;;;14.91;42.94
70011;BME280;59543;37.950;-122.338;2023-04-01T01:02:52;102199.88;;;14.70;43.98
70011;BME280;59543;37.950;-122.338;2023-04-01T01:05:27;102198.59;;;14.64;45.10
70011;BME280;59543;37.950;-122.338;2023-04-01T01:08:10;102199.88;;;14.60;43.14
70011;BME280;59543;37.950;-122.338;2023-04-01T01:10:46;102199.16;;;14.58;44.01
70011;BME280;59543;37.950;-122.338;2023-04-01T01:18:53;102208.31;;;14.27;45.51
70011;BME280;59543;37.950;-122.338;2023-04-01T01:24:28;102216.50;;;14.06;48.54
70011;BME280;59543;37.950;-122.338;2023-04-01T01:27:15;102207.94;;;14.10;48.27
70011;BME280;59543;37.950;-122.338;2023-04-01T01:32:34;102208.78;;;14.11;48.33
70011;BME280;59543;37.950;-122.338;2023-04-01T01:35:38;102212.94;;;14.05;49.46
70011;BME280;59543;37.950;-122.338;2023-04-01T01:38:13;102214.09;;;14.12;49.60
70011;BME280;59543;37.950;-122.338;2023-04-01T01:40:43;102220.16;;;14.05;49.74
70011;BME280;59543;37.950;-122.338;2023-04-01T01:43:14;102217.56;;;13.93;50.35
70011;BME280;59543;37.950;-122.338;2023-04-01T01:45:46;102224.50;;;13.86;51.00
70011;BME280;59543;37.950;-122.338;2023-04-01T01:48:14;102215.00;;;13.71;51.12
70011;BME280;59543;37.950;-122.338;2023-04-01T01:50:44;102223.59;;;13.76;51.39
70011;BME280;59543;37.950;-122.338;2023-04-01T01:53:12;102221.16;;;13.73;51.95
70011;BME280;59543;37.950;-122.338;2023-04-01T01:55:44;102222.22;;;13.61;52.67
70011;BME280;59543;37.950;-122.338;2023-04-01T02:00:43;102222.53;;;13.67;53.03
70011;BME280;59543;37.950;-122.338;2023-04-01T02:03:12;102209.69;;;13.60;53.47
70011;BME280;59543;37.950;-122.338;2023-04-01T02:05:40;102213.06;;;13.52;53.23
70011;BME280;59543;37.950;-122.338;2023-04-01T02:08:12;102213.16;;;13.30;54.26
70011;BME280;59543;37.950;-122.338;2023-04-01T02:10:43;102204.69;;;13.34;54.56
70011;BME280;59543;37.950;-122.338;2023-04-01T02:16:00;102194.38;;;12.96;55.29
70011;BME280;59543;37.950;-122.338;2023-04-01T02:18:33;102198.66;;;12.66;53.54
70011;BME280;59543;37.950;-122.338;2023-04-01T02:21:01;102204.09;;;12.55;53.11
70011;BME280;59543;37.950;-122.338;2023-04-01T02:23:33;102203.97;;;12.45;51.99
70011;BME280;59543;37.950;-122.338;2023-04-01T02:26:02;102212.63;;;12.28;52.52
70011;BME280;59543;37.950;-122.338;2023-04-01T02:28:31;102208.31;;;12.25;53.00
70011;BME280;59543;37.950;-122.338;2023-04-01T02:30:59;102213.72;;;12.25;52.33
70011;BME280;59543;37.950;-122.338;2023-04-01T02:33:28;102204.75;;;11.91;52.92
70011;BME280;59543;37.950;-122.338;2023-04-01T02:35:56;102203.19;;;11.88;53.05
70011;BME280;59543;37.950;-122.338;2023-04-01T02:38:23;102206.19;;;11.84;53.64
70011;BME280;59543;37.950;-122.338;2023-04-01T02:40:56;102204.75;;;11.80;53.70
70011;BME280;59543;37.950;-122.338;2023-04-01T02:43:22;102201.03;;;11.70;53.73
70011;BME280;59543;37.950;-122.338;2023-04-01T02:45:49;102209.13;;;11.81;53.58
70011;BME280;59543;37.950;-122.338;2023-04-01T02:48:15;102199.69;;;11.75;54.48
70011;BME280;59543;37.950;-122.338;2023-04-01T02:50:41;102204.72;;;11.68;54.17
70011;BME280;59543;37.950;-122.338;2023-04-01T02:53:08;102206.56;;;11.68;54.35
70011;BME280;59543;37.950;-122.338;2023-04-01T02:55:34;102206.06;;;11.63;53.58
70011;BME280;59543;37.950;-122.338;2023-04-01T02:58:01;102211.09;;;11.67;53.43
70011;BME280;59543;37.950;-122.338;2023-04-01T03:00:27;102212.06;;;11.55;53.69
70011;BME280;59543;37.950;-122.338;2023-04-01T03:02:53;102219.97;;;11.45;54.16
70011;BME280;59543;37.950;-122.338;2023-04-01T03:05:20;102215.66;;;11.32;53.84
70011;BME280;59543;37.950;-122.338;2023-04-01T03:07:47;102216.25;;;11.24;54.74
70011;BME280;59543;37.950;-122.338;2023-04-01T03:10:13;102224.47;;;11.23;55.12
70011;BME280;59543;37.950;-122.338;2023-04-01T03:12:39;102223.31;;;11.14;55.02
70011;BME280;59543;37.950;-122.338;2023-04-01T03:15:06;102225.41;;;11.21;55.70
70011;BME280;59543;37.950;-122.338;2023-04-01T03:17:33;102230.78;;;11.10;55.51
70011;BME280;59543;37.950;-122.338;2023-04-01T03:19:59;102235.81;;;10.91;56.30
70011;BME280;59543;37.950;-122.338;2023-04-01T03:22:26;102234.34;;;10.87;56.83
70011;BME280;59543;37.950;-122.338;2023-04-01T03:24:52;102244.03;;;10.89;56.97
70011;BME280;59543;37.950;-122.338;2023-04-01T03:27:18;102249.97;;;10.82;57.64
70011;BME280;59543;37.950;-122.338;2023-04-01T03:29:45;102256.34;;;10.68;58.26
70011;BME280;59543;37.950;-122.338;2023-04-01T03:32:11;102255.72;;;10.64;59.14
70011;BME280;59543;37.950;-122.338;2023-04-01T03:34:37;102261.38;;;10.48;59.58
70011;BME280;59543;37.950;-122.338;2023-04-01T03:37:03;102260.50;;;10.48;59.78
70011;BME280;59543;37.950;-122.338;2023-04-01T03:39:31;102264.38;;;10.44;60.21
70011;BME280;59543;37.950;-122.338;2023-04-01T03:41:57;102267.50;;;10.38;60.44
70011;BME280;59543;37.950;-122.338;2023-04-01T03:44:23;102273.31;;;10.19;61.05
70011;BME280;59543;37.950;-122.338;2023-04-01T03:46:49;102268.28;;;10.14;61.02
70011;BME280;59543;37.950;-122.338;2023-04-01T03:49:16;102272.91;;;10.12;61.21
70011;BME280;59543;37.950;-122.338;2023-04-01T03:51:43;102272.16;;;10.23;61.05
70011;BME280;59543;37.950;-122.338;2023-04-01T03:54:10;102268.56;;;10.22;60.72
70011;BME280;59543;37.950;-122.338;2023-04-01T03:56:37;102262.56;;;10.19;60.92
70011;BME280;59543;37.950;-122.338;2023-04-01T03:59:06;102268.28;;;10.14;60.99
70011;BME280;59543;37.950;-122.338;2023-04-01T04:01:33;102266.44;;;10.15;61.82
70011;BME280;59543;37.950;-122.338;2023-04-01T04:03:59;102262.78;;;10.03;62.83
70011;BME280;59543;37.950;-122.338;2023-04-01T04:06:26;102258.63;;;9.99;62.18
70011;BME280;59543;37.950;-122.338;2023-04-01T04:08:53;102257.84;;;9.97;62.57
70011;BME280;59543;37.950;-122.338;2023-04-01T04:11:21;102254.53;;;9.93;62.71
70011;BME280;59543;37.950;-122.338;2023-04-01T04:13:47;102261.84;;;9.78;63.66
70011;BME280;59543;37.950;-122.338;2023-04-01T04:16:14;102263.75;;;9.76;62.17
70011;BME280;59543;37.950;-122.338;2023-04-01T04:18:41;102264.41;;;9.80;62.21
70011;BME280;59543;37.950;-122.338;2023-04-01T04:21:10;102265.38;;;9.66;62.73
70011;BME280;59543;37.950;-122.338;2023-04-01T04:23:37;102277.06;;;9.65;62.96
70011;BME280;59543;37.950;-122.338;2023-04-01T04:26:09;102269.84;;;9.66;63.32
70011;BME280;59543;37.950;-122.338;2023-04-01T04:28:36;102263.63;;;9.65;63.36
70011;BME280;59543;37.950;-122.338;2023-04-01T04:31:02;102266.75;;;9.59;63.13
70011;BME280;59543;37.950;-122.338;2023-04-01T04:33:30;102278.03;;;9.51;63.46
70011;BME280;59543;37.950;-122.338;2023-04-01T04:35:58;102277.16;;;9.51;63.77
70011;BME280;59543;37.950;-122.338;2023-04-01T04:38:28;102276.72;;;9.44;63.82
70011;BME280;59543;37.950;-122.338;2023-04-01T04:40:54;102275.41;;;9.37;64.32
70011;BME280;59543;37.950;-122.338;2023-04-01T04:43:21;102277.09;;;9.25;64.37
70011;BME280;59543;37.950;-122.338;2023-04-01T04:45:47;102277.34;;;9.08;64.67
70011;BME280;59543;37.950;-122.338;2023-04-01T04:48:14;102276.63;;;9.06;64.91
70011;BME280;59543;37.950;-122.338;2023-04-01T04:50:45;102283.16;;;8.87;66.53
70011;BME280;59543;37.950;-122.338;2023-04-01T04:53:12;102285.72;;;8.76;67.71
70011;BME280;59543;37.950;-122.338;2023-04-01T04:55:44;102289.69;;;8.83;67.23
70011;BME280;59543;37.950;-122.338;2023-04-01T04:58:10;102286.66;;;8.75;67.54
70011;BME280;59543;37.950;-122.338;2023-04-01T05:00:37;102298.28;;;8.61;68.38
70011;BME280;59543;37.950;-122.338;2023-04-01T05:03:03;102295.63;;;8.47;69.45
70011;BME280;59543;37.950;-122.338;2023-04-01T05:05:29;102297.25;;;8.50;69.54
70011;BME280;59543;37.950;-122.338;2023-04-01T05:07:55;102301.38;;;8.41;69.37
70011;BME280;59543;37.950;-122.338;2023-04-01T05:10:22;102299.69;;;7.95;71.83
70011;BME280;59543;37.950;-122.338;2023-04-01T05:12:48;102303.53;;;7.91;71.81
70011;BME280;59543;37.950;-122.338;2023-04-01T05:15:14;102302.41;;;8.10;70.52
70011;BME280;59543;37.950;-122.338;2023-04-01T05:17:41;102295.19;;;7.96;71.66
70011;BME280;59543;37.950;-122.338;2023-04-01T05:20:12;102304.41;;;7.62;72.72
70011;BME280;59543;37.950;-122.338;2023-04-01T05:22:42;102308.50;;;7.53;73.17
70011;BME280;59543;37.950;-122.338;2023-04-01T05:25:09;102317.25;;;7.71;72.32
70011;BME280;59543;37.950;-122.338;2023-04-01T05:27:35;102314.97;;;7.79;71.71
70011;BME280;59543;37.950;-122.338;2023-04-01T05:30:02;102307.03;;;7.77;71.66
70011;BME280;59543;37.950;-122.338;2023-04-01T05:32:28;102314.97;;;7.79;71.54
70011;BME280;59543;37.950;-122.338;2023-04-01T05:34:56;102314.03;;;7.80;71.49
70011;BME280;59543;37.950;-122.338;2023-04-01T05:37:22;102305.88;;;7.82;71.34
70011;BME280;59543;37.950;-122.338;2023-04-01T05:39:49;102301.19;;;7.71;71.67
70011;BME280;59543;37.950;-122.338;2023-04-01T05:42:15;102306.06;;;7.64;72.27
70011;BME280;59543;37.950;-122.338;2023-04-01T05:44:44;102317.25;;;7.41;73.60
70011;BME280;59543;37.950;-122.338;2023-04-01T05:47:11;102310.25;;;6.92;75.40
70011;BME280;59543;37.950;-122.338;2023-04-01T05:49:36;102300.75;;;6.86;76.33
70011;BME280;59543;37.950;-122.338;2023-04-01T05:52:03;102306.34;;;6.98;75.64
70011;BME280;59543;37.950;-122.338;2023-04-01T05:54:29;102311.88;;;6.79;76.72
70011;BME280;59543;37.950;-122.338;2023-04-01T05:56:55;102310.34;;;6.75;76.60
70011;BME280;59543;37.950;-122.338;2023-04-01T05:59:21;102296.69;;;6.79;76.69
70011;BME280;59543;37.950;-122.338;2023-04-01T06:01:47;102305.31;;;6.84;76.72
70011;BME280;59543;37.950;-122.338;2023-04-01T06:04:16;102307.38;;;6.79;76.93
70011;BME280;59543;37.950;-122.338;2023-04-01T06:06:42;102310.84;;;6.81;76.57
70011;BME280;59543;37.950;-122.338;2023-04-01T06:09:30;102305.06;;;6.57;77.58
70011;BME280;59543;37.950;-122.338;2023-04-01T06:37:04;102307.88;;;6.38;77.69
70011;BME280;59543;37.950;-122.338;2023-04-01T06:39:47;102306.69;;;6.44;77.22
70011;BME280;59543;37.950;-122.338;2023-04-01T06:45:06;102308.81;;;6.37;77.13
70011;BME280;59543;37.950;-122.338;2023-04-01T06:47:46;102308.44;;;6.28;77.35
70011;BME280;59543;37.950;-122.338;2023-04-01T06:50:37;102303.53;;;5.85;79.16
70011;BME280;59543;37.950;-122.338;2023-04-01T06:56:05;102303.72;;;5.65;80.75
70011;BME280;59543;37.950;-122.338;2023-04-01T06:58:41;102303.06;;;5.77;80.43
70011;BME280;59543;37.950;-122.338;2023-04-01T07:01:13;102314.31;;;5.66;80.75
70011;BME280;59543;37.950;-122.338;2023-04-01T07:06:30;102314.47;;;5.46;81.50
70011;BME280;59543;37.950;-122.338;2023-04-01T07:09:00;102309.66;;;5.35;81.74
70011;BME280;59543;37.950;-122.338;2023-04-01T07:11:33;102318.63;;;5.34;81.89
70011;BME280;59543;37.950;-122.338;2023-04-01T07:14:10;102311.25;;;5.39;81.74
70011;BME280;59543;37.950;-122.338;2023-04-01T07:16:45;102324.78;;;5.54;81.34
70011;BME280;59543;37.950;-122.338;2023-04-01T07:19:19;102326.72;;;5.33;81.55
70011;BME280;59543;37.950;-122.338;2023-04-01T07:21:49;102322.25;;;5.14;82.76
70011;BME280;59543;37.950;-122.338;2023-04-01T07:24:37;102319.97;;;5.07;83.29
70011;BME280;59543;37.950;-122.338;2023-04-01T07:27:09;102321.00;;;5.04;83.15
70011;BME280;59543;37.950;-122.338;2023-04-01T07:29:36;102316.25;;;4.92;83.58
70011;BME280;59543;37.950;-122.338;2023-04-01T07:37:39;102319.38;;;4.82;83.63
70011;BME280;59543;37.950;-122.338;2023-04-01T07:48:33;102318.13;;;4.71;84.30
70011;BME280;59543;37.950;-122.338;2023-04-01T07:57:14;102312.16;;;4.66;84.34
70011;BME280;59543;37.950;-122.338;2023-04-01T07:59:57;102313.09;;;4.65;84.94
70011;BME280;59543;37.950;-122.338;2023-04-01T08:08:32;102305.59;;;4.54;85.15
70011;BME280;59543;37.950;-122.338;2023-04-01T08:16:58;102307.97;;;4.60;84.99
70011;BME280;59543;37.950;-122.338;2023-04-01T08:19:41;102304.59;;;4.56;84.99
70011;BME280;59543;37.950;-122.338;2023-04-01T08:22:18;102309.91;;;4.56;85.11
70011;BME280;59543;37.950;-122.338;2023-04-01T08:24:48;102297.47;;;4.57;85.26
70011;BME280;59543;37.950;-122.338;2023-04-01T08:27:39;102299.19;;;4.39;85.51
70011;BME280;59543;37.950;-122.338;2023-04-01T08:30:20;102292.22;;;4.37;85.84
70011;BME280;59543;37.950;-122.338;2023-04-01T08:33:00;102295.88;;;4.34;86.10
70011;BME280;59543;37.950;-122.338;2023-04-01T08:35:38;102293.78;;;4.41;86.00
70011;BME280;59543;37.950;-122.338;2023-04-01T08:38:11;102284.56;;;4.48;85.43
70011;BME280;59543;37.950;-122.338;2023-04-01T08:54:13;102283.28;;;4.75;83.57
70011;BME280;59543;37.950;-122.338;2023-04-01T08:56:54;102270.97;;;4.73;82.92
70011;BME280;59543;37.950;-122.338;2023-04-01T09:05:35;102273.34;;;4.41;85.00
70011;BME280;59543;37.950;-122.338;2023-04-01T09:08:31;102270.31;;;4.30;85.47
70011;BME280;59543;37.950;-122.338;2023-04-01T09:32:41;102290.66;;;4.12;85.31
70011;BME280;59543;37.950;-122.338;2023-04-01T09:35:20;102293.59;;;4.06;86.44
70011;BME280;59543;37.950;-122.338;2023-04-01T09:38:12;102295.91;;;4.13;85.49
70011;BME280;59543;37.950;-122.338;2023-04-01T09:40:58;102292.53;;;4.10;86.89
70011;BME280;59543;37.950;-122.338;2023-04-01T09:43:36;102294.13;;;4.14;85.25
70011;BME280;59543;37.950;-122.338;2023-04-01T09:46:22;102290.88;;;4.07;86.66
70011;BME280;59543;37.950;-122.338;2023-04-01T09:51:40;102278.09;;;4.16;86.02
70011;BME280;59543;37.950;-122.338;2023-04-01T10:03:02;102272.56;;;4.00;87.20
70011;BME280;59543;37.950;-122.338;2023-04-01T10:13:49;102281.34;;;4.02;86.85
70011;BME280;59543;37.950;-122.338;2023-04-01T10:19:39;102281.06;;;4.08;85.91
70011;BME280;59543;37.950;-122.338;2023-04-01T10:36:30;102259.50;;;3.75;87.55
70011;BME280;59543;37.950;-122.338;2023-04-01T10:51:21;102232.88;;;3.75;87.74
70011;BME280;59543;37.950;-122.338;2023-04-01T10:56:42;102229.50;;;3.71;87.53
70011;BME280;59543;37.950;-122.338;2023-04-01T11:16:32;102204.03;;;3.84;88.67
70011;BME280;59543;37.950;-122.338;2023-04-01T11:19:13;102208.78;;;3.78;88.26
70011;BME280;59543;37.950;-122.338;2023-04-01T11:41:37;102207.22;;;3.74;89.23
70011;BME280;59543;37.950;-122.338;2023-04-01T11:44:21;102206.72;;;3.84;88.47
70011;BME280;59543;37.950;-122.338;2023-04-01T11:55:28;102207.22;;;3.53;89.85
70011;BME280;59543;37.950;-122.338;2023-04-01T12:06:44;102200.09;;;3.74;89.25
70011;BME280;59543;37.950;-122.338;2023-04-01T12:21:42;102193.47;;;3.43;90.44
70011;BME280;59543;37.950;-122.338;2023-04-01T12:26:58;102199.13;;;3.36;90.93
70011;BME280;59543;37.950;-122.338;2023-04-01T12:35:02;102193.47;;;3.43;89.86
70011;BME280;59543;37.950;-122.338;2023-04-01T12:37:53;102194.59;;;3.38;90.45
70011;BME280;59543;37.950;-122.338;2023-04-01T12:40:37;102194.19;;;3.47;91.21
70011;BME280;59543;37.950;-122.338;2023-04-01T13:02:56;102221.94;;;3.41;90.76
70011;BME280;59543;37.950;-122.338;2023-04-01T13:05:47;102223.50;;;3.46;90.15
70011;BME280;59543;37.950;-122.338;2023-04-01T13:08:44;102223.31;;;3.50;89.72
70011;BME280;59543;37.950;-122.338;2023-04-01T13:19:54;102229.09;;;3.39;89.71
70011;BME280;59543;37.950;-122.338;2023-04-01T13:28:36;102241.59;;;3.17;91.37
70011;BME280;59543;37.950;-122.338;2023-04-01T13:31:24;102240.75;;;3.16;91.71
70011;BME280;59543;37.950;-122.338;2023-04-01T13:36:36;102243.88;;;3.26;90.96
70011;BME280;59543;37.950;-122.338;2023-04-01T13:39:24;102247.06;;;3.34;90.38
70011;BME280;59543;37.950;-122.338;2023-04-01T13:44:49;102250.13;;;3.46;89.39
70011;BME280;59543;37.950;-122.338;2023-04-01T13:55:39;102247.59;;;3.42;89.06
70011;BME280;59543;37.950;-122.338;2023-04-01T14:09:27;102247.31;;;3.49;90.71
70011;BME280;59543;37.950;-122.338;2023-04-01T14:15:06;102246.53;;;3.47;90.01
70011;BME280;59543;37.950;-122.338;2023-04-01T14:17:39;102250.63;;;3.33;90.75
70011;BME280;59543;37.950;-122.338;2023-04-01T14:23:36;102249.56;;;3.58;90.06
70011;BME280;59543;37.950;-122.338;2023-04-01T14:45:24;102268.56;;;4.10;89.92
70011;BME280;59543;37.950;-122.338;2023-04-01T14:51:03;102266.00;;;4.27;90.38
70011;BME280;59543;37.950;-122.338;2023-04-01T14:53:38;102263.13;;;4.32;90.00
70011;BME280;59543;37.950;-122.338;2023-04-01T14:56:09;102264.50;;;4.41;90.09
70011;BME280;59543;37.950;-122.338;2023-04-01T14:58:57;102260.38;;;4.52;89.79
70011;BME280;59543;37.950;-122.338;2023-04-01T15:19:18;102273.59;;;5.63;89.02
70011;BME280;59543;37.950;-122.338;2023-04-01T15:25:10;102265.06;;;6.23;90.04
70011;BME280;59543;37.950;-122.338;2023-04-01T15:30:27;102261.06;;;6.79;90.24
70011;BME280;59543;37.950;-122.338;2023-04-01T15:33:11;102267.78;;;7.02;90.01
70011;BME280;59543;37.950;-122.338;2023-04-01T15:38:47;102272.50;;;7.43;90.19
70011;BME280;59543;37.950;-122.338;2023-04-01T15:41:16;102264.63;;;7.70;89.58
70011;BME280;59543;37.950;-122.338;2023-04-01T15:43:48;102272.13;;;7.93;89.20
70011;BME280;59543;37.950;-122.338;2023-04-01T15:46:49;102267.38;;;8.13;88.86
70011;BME280;59543;37.950;-122.338;2023-04-01T15:57:32;102272.19;;;8.78;86.64
70011;BME280;59543;37.950;-122.338;2023-04-01T16:00:02;102266.97;;;8.89;85.76
70011;BME280;59543;37.950;-122.338;2023-04-01T16:02:44;102275.44;;;9.10;84.65
70011;BME280;59543;37.950;-122.338;2023-04-01T16:07:55;102270.06;;;9.50;83.13
70011;BME280;59543;37.950;-122.338;2023-04-01T16:11:06;102269.56;;;9.70;81.91
70011;BME280;59543;37.950;-122.338;2023-04-01T16:22:17;102276.91;;;10.32;77.69
70011;BME280;59543;37.950;-122.338;2023-04-01T16:27:54;102284.47;;;10.64;75.74
70011;BME280;59543;37.950;-122.338;2023-04-01T16:30:55;102297.19;;;10.86;74.41
70011;BME280;59543;37.950;-122.338;2023-04-01T16:33:35;102313.88;;;10.91;73.41
70011;BME280;59543;37.950;-122.338;2023-04-01T16:38:40;102301.06;;;11.18;74.76
70011;BME280;59543;37.950;-122.338;2023-04-01T16:41:29;102300.34;;;11.52;71.58
70011;BME280;59543;37.950;-122.338;2023-04-01T16:44:16;102298.69;;;11.73;70.48
70011;BME280;59543;37.950;-122.338;2023-04-01T16:46:46;102305.09;;;11.83;69.52
70011;BME280;59543;37.950;-122.338;2023-04-01T17:02:38;102306.03;;;12.85;64.28
70011;BME280;59543;37.950;-122.338;2023-04-01T17:05:11;102302.91;;;13.12;61.72
70011;BME280;59543;37.950;-122.338;2023-04-01T17:13:23;102300.66;;;13.17;58.69
70011;BME280;59543;37.950;-122.338;2023-04-01T17:18:58;102299.28;;;13.23;59.83
70011;BME280;59543;37.950;-122.338;2023-04-01T17:27:43;102296.34;;;13.58;58.95
70011;BME280;59543;37.950;-122.338;2023-04-01T17:30:28;102297.94;;;13.61;58.04
70011;BME280;59543;37.950;-122.338;2023-04-01T17:33:31;102303.63;;;13.79;57.46
70011;BME280;59543;37.950;-122.338;2023-04-01T17:36:14;102308.75;;;13.82;57.53
70011;BME280;59543;37.950;-122.338;2023-04-01T17:55:11;102293.69;;;14.71;55.48
70011;BME280;59543;37.950;-122.338;2023-04-01T17:58:45;102303.81;;;14.69;53.62
70011;BME280;59543;37.950;-122.338;2023-04-01T18:01:06;102304.28;;;14.94;55.40
70011;BME280;59543;37.950;-122.338;2023-04-01T18:23:56;102296.25;;;16.18;51.21
70011;BME280;59543;37.950;-122.338;2023-04-01T18:25:55;102295.69;;;16.25;51.06
70011;BME280;59543;37.950;-122.338;2023-04-01T18:28:52;102305.69;;;16.14;50.84
70011;BME280;59543;37.950;-122.338;2023-04-01T18:31:24;102297.88;;;16.39;49.91
70011;BME280;59543;37.950;-122.338;2023-04-01T18:34:15;102288.19;;;16.36;51.04
70011;BME280;59543;37.950;-122.338;2023-04-01T18:37:02;102287.38;;;16.26;51.86
70011;BME280;59543;37.950;-122.338;2023-04-01T18:39:45;102284.72;;;16.72;50.09
70011;BME280;59543;37.950;-122.338;2023-04-01T18:45:36;102285.94;;;16.87;50.57
70011;BME280;59543;37.950;-122.338;2023-04-01T18:53:46;102283.44;;;17.39;48.52
70011;BME280;59543;37.950;-122.338;2023-04-01T18:56:24;102282.50;;;17.48;48.55
70011;BME280;59543;37.950;-122.338;2023-04-01T19:07:19;102287.78;;;17.32;48.62
70011;BME280;59543;37.950;-122.338;2023-04-01T19:09:47;102293.50;;;17.11;48.56
70011;BME280;59543;37.950;-122.338;2023-04-01T19:12:40;102286.16;;;17.39;47.90
70011;BME280;59543;37.950;-122.338;2023-04-01T19:18:58;102284.28;;;17.40;48.06
70011;BME280;59543;37.950;-122.338;2023-04-01T19:24:07;102285.75;;;17.52;48.80
70011;BME280;59543;37.950;-122.338;2023-04-01T19:32:53;102270.72;;;17.66;48.43
70011;BME280;59543;37.950;-122.338;2023-04-01T19:38:04;102268.09;;;18.00;46.03
70011;BME280;59543;37.950;-122.338;2023-04-01T19:40:55;102271.41;;;17.86;48.47
70011;BME280;59543;37.950;-122.338;2023-04-01T19:59:31;102265.50;;;17.90;50.87
70011;BME280;59543;37.950;-122.338;2023-04-01T20:04:55;102260.00;;;17.82;47.44
70011;BME280;59543;37.950;-122.338;2023-04-01T20:07:31;102255.88;;;18.04;47.16
70011;BME280;59543;37.950;-122.338;2023-04-01T20:10:09;102255.66;;;18.23;45.71
70011;BME280;59543;37.950;-122.338;2023-04-01T20:12:47;102258.91;;;18.01;46.30
70011;BME280;59543;37.950;-122.338;2023-04-01T20:18:01;102256.88;;;18.37;47.11
70011;BME280;59543;37.950;-122.338;2023-04-01T20:20:29;102249.69;;;18.28;48.52
70011;BME280;59543;37.950;-122.338;2023-04-01T20:28:08;102238.72;;;18.46;46.79
70011;BME280;59543;37.950;-122.338;2023-04-01T20:49:50;102225.66;;;18.15;48.92
70011;BME280;59543;37.950;-122.338;2023-04-01T20:54:48;102218.66;;;18.55;47.12
70011;BME280;59543;37.950;-122.338;2023-04-01T21:10:46;102195.28;;;18.44;46.45
70011;BME280;59543;37.950;-122.338;2023-04-01T21:30:11;102171.56;;;18.28;46.99
70011;BME280;59543;37.950;-122.338;2023-04-01T21:33:19;102174.59;;;18.76;45.85
70011;BME280;59543;37.950;-122.338;2023-04-01T21:41:52;102163.63;;;18.51;44.40
70011;BME280;59543;37.950;-122.338;2023-04-01T22:05:25;102137.75;;;18.47;46.15
70011;BME280;59543;37.950;-122.338;2023-04-01T22:08:20;102136.72;;;18.65;46.02
70011;BME280;59543;37.950;-122.338;2023-04-01T22:10:59;102132.53;;;18.20;46.75
70011;BME280;59543;37.950;-122.338;2023-04-01T22:13:46;102135.44;;;18.93;47.49
70011;BME280;59543;37.950;-122.338;2023-04-01T22:27:52;102117.72;;;19.14;44.73
70011;BME280;59543;37.950;-122.338;2023-04-01T22:32:50;102118.22;;;18.77;45.09
70011;BME280;59543;37.950;-122.338;2023-04-01T22:43:40;102102.69;;;18.77;46.18
70011;BME280;59543;37.950;-122.338;2023-04-01T22:49:21;102106.47;;;18.76;47.01
70011;BME280;59543;37.950;-122.338;2023-04-01T22:52:01;102101.19;;;18.99;45.86
70011;BME280;59543;37.950;-122.338;2023-04-01T22:54:40;102097.59;;;18.99;46.49
70011;BME280;59543;37.950;-122.338;2023-04-01T23:00:24;102084.44;;;19.18;44.30
70011;BME280;59543;37.950;-122.338;2023-04-01T23:05:55;102084.22;;;19.36;44.41
70011;BME280;59543;37.950;-122.338;2023-04-01T23:11:04;102075.00;;;19.46;44.81
70011;BME280;59543;37.950;-122.338;2023-04-01T23:13:36;102078.91;;;19.51;44.21
70011;BME280;59543;37.950;-122.338;2023-04-01T23:16:04;102075.13;;;19.60;43.91
70011;BME280;59543;37.950;-122.338;2023-04-01T23:24:05;102070.44;;;19.38;46.30
70011;BME280;59543;37.950;-122.338;2023-04-01T23:26:58;102072.81;;;19.41;44.40
70011;BME280;59543;37.950;-122.338;2023-04-01T23:29:26;102070.88;;;19.58;44.59